Time;durP1;ratioP1;P1;durP2;ratioP2;P2;SDS_P1;SDS_P2;PMS_P1;PMS_P2;Temp;Humidity;BMP_temperature;BMP_pressure;BME280_temperature;BME280_humidity;BME280_pressure;Samples;Min_cycle;Max_cycle;Signal;HPM_P1;HPM_P2
2021/12/02 00:00:26;;;;;;;7.93;2.97;;;;;;;7.10;67.19;97693.63;4364975;32;33242;-88
2021/12/02 00:02:53;;;;;;;6.32;2.65;;;;;;;7.30;66.79;97691.09;4390940;32;33241;-88
2021/12/02 00:05:22;;;;;;;5.57;2.83;;;;;;;7.51;66.01;97693.72;4390470;32;33820;-86
2021/12/02 00:07:51;;;;;;;12.93;2.87;;;;;;;7.39;66.74;97695.44;4364988;32;32629;-88
2021/12/02 00:10:18;;;;;;;5.87;2.92;;;;;;;7.37;66.90;97703.12;4364288;32;34427;-87
2021/12/02 00:12:49;;;;;;;5.62;3.05;;;;;;;7.36;67.44;97703.16;4389347;32;34042;-88
2021/12/02 00:15:22;;;;;;;6.32;2.35;;;;;;;7.51;67.01;97698.87;4383218;32;34663;-88
2021/12/02 00:17:58;;;;;;;5.80;3.00;;;;;;;7.61;66.85;97706.59;4397343;32;34185;-88
2021/12/02 00:23:28;;;;;;;5.85;2.95;;;;;;;7.43;68.05;97712.63;4398641;32;33435;-87
2021/12/02 00:25:57;;;;;;;6.47;2.87;;;;;;;7.45;67.97;97708.31;4391099;32;33874;-87
2021/12/02 00:28:28;;;;;;;6.43;2.78;;;;;;;7.43;68.12;97710.03;4380693;32;34252;-88
2021/12/02 00:30:58;;;;;;;5.32;2.55;;;;;;;7.54;68.00;97709.19;4390444;32;33653;-89
2021/12/02 00:33:27;;;;;;;5.53;2.85;;;;;;;7.48;68.13;97718.62;4366891;32;32688;-88
2021/12/02 00:35:55;;;;;;;7.05;2.90;;;;;;;7.73;67.35;97712.66;4376239;32;33990;-88
2021/12/02 00:38:24;;;;;;;5.75;2.40;;;;;;;7.83;66.73;97716.06;4366112;32;35159;-88
2021/12/02 00:40:53;;;;;;;4.12;2.10;;;;;;;7.91;66.39;97708.34;4393400;32;33244;-89
2021/12/02 00:43:20;;;;;;;5.43;2.60;;;;;;;7.79;66.96;97710.06;4376742;32;33825;-87
2021/12/02 00:45:50;;;;;;;5.95;2.60;;;;;;;7.95;66.19;97704.91;4376280;32;34682;-88
2021/12/02 00:48:18;;;;;;;5.93;2.20;;;;;;;7.89;66.53;97699.75;4380144;32;33888;-87
2021/12/02 00:50:48;;;;;;;6.72;2.83;;;;;;;7.92;66.45;97695.44;4390643;32;33902;-88
2021/12/02 00:53:18;;;;;;;5.87;2.45;;;;;;;8.05;66.23;97696.28;4376919;32;33445;-86
2021/12/02 00:55:46;;;;;;;4.90;2.28;;;;;;;8.13;65.91;97691.97;4390550;32;33929;-89
2021/12/02 00:58:19;;;;;;;6.55;2.40;;;;;;;8.02;66.58;97697.16;4369923;32;35010;-88
2021/12/02 01:00:52;;;;;;;6.00;2.58;;;;;;;7.94;66.49;97695.44;4370014;32;34154;-88
2021/12/02 01:03:21;;;;;;;4.78;2.17;;;;;;;7.95;66.66;97702.31;4389980;32;33676;-87
2021/12/02 01:05:50;;;;;;;6.40;2.50;;;;;;;7.93;66.86;97702.31;4376435;32;34591;-89
2021/12/02 01:08:18;;;;;;;4.35;2.10;;;;;;;8.05;66.48;97693.72;4391491;32;34330;-88
2021/12/02 01:10:46;;;;;;;5.25;2.30;;;;;;;8.06;66.40;97692.84;4376752;32;34015;-89
2021/12/02 01:13:15;;;;;;;5.87;2.15;;;;;;;8.15;66.43;97695.44;4390752;32;33077;-90
2021/12/02 01:15:44;;;;;;;6.10;3.08;;;;;;;8.11;66.50;97700.59;4401612;32;33991;-89
2021/12/02 01:18:11;;;;;;;5.53;2.58;;;;;;;7.87;67.35;97709.19;4391621;32;34696;-89
2021/12/02 01:20:39;;;;;;;5.47;2.62;;;;;;;8.01;67.04;97694.59;4392346;32;33960;-89
2021/12/02 01:23:07;;;;;;;7.07;2.60;;;;;;;7.94;67.07;97700.59;4376004;32;33140;-89
2021/12/02 01:25:35;;;;;;;5.15;2.90;;;;;;;8.10;66.75;97698.87;4390656;32;33582;-89
2021/12/02 01:28:03;;;;;;;5.65;2.30;;;;;;;8.07;66.72;97697.16;4379111;32;33741;-88
2021/12/02 01:30:31;;;;;;;5.50;2.72;;;;;;;8.01;66.98;97692.00;4376330;32;34029;-88
2021/12/02 01:33:01;;;;;;;6.57;2.95;;;;;;;8.16;66.66;97694.56;4375593;32;34205;-90
2021/12/02 01:35:31;;;;;;;6.65;2.85;;;;;;;7.89;67.35;97695.44;4390636;32;33816;-88
2021/12/02 01:37:59;;;;;;;7.25;2.60;;;;;;;7.99;67.10;97696.28;4378555;32;34022;-89
2021/12/02 01:40:29;;;;;;;6.72;3.05;;;;;;;8.09;66.71;97692.84;4382141;32;34042;-89
2021/12/02 01:42:58;;;;;;;6.70;3.10;;;;;;;8.10;66.76;97684.22;4400602;32;33614;-89
2021/12/02 01:45:30;;;;;;;7.82;3.08;;;;;;;8.09;66.77;97682.53;4390041;32;33724;-88
2021/12/02 01:47:59;;;;;;;5.55;2.72;;;;;;;8.24;66.46;97679.91;4388909;32;35626;-89
2021/12/02 01:50:26;;;;;;;6.15;2.80;;;;;;;8.19;66.60;97678.22;4391166;32;33868;-88
2021/12/02 01:52:57;;;;;;;6.22;2.55;;;;;;;8.23;66.46;97669.59;4377935;32;33554;-88
2021/12/02 01:55:26;;;;;;;5.62;2.87;;;;;;;8.19;66.73;97668.75;4380780;32;33765;-89
2021/12/02 01:58:00;;;;;;;4.30;2.35;;;;;;;8.20;66.34;97665.28;4381536;32;34008;-89
2021/12/02 02:00:33;;;;;;;8.20;2.87;;;;;;;8.31;66.22;97669.59;4382247;32;33858;-89
2021/12/02 02:03:02;;;;;;;6.20;2.60;;;;;;;8.35;66.17;97669.56;4384171;32;34495;-89
2021/12/02 02:05:31;;;;;;;6.37;2.67;;;;;;;8.30;66.23;97676.47;4381122;32;33693;-89
2021/12/02 02:08:02;;;;;;;5.18;2.37;;;;;;;8.33;66.21;97665.25;4385297;32;34997;-88
2021/12/02 02:10:33;;;;;;;4.87;2.55;;;;;;;8.23;66.58;97674.78;4394779;32;34169;-89
2021/12/02 02:13:06;;;;;;;5.35;2.28;;;;;;;8.29;66.39;97678.19;4395402;32;32979;-89
2021/12/02 02:15:35;;;;;;;5.85;2.72;;;;;;;8.14;66.93;97670.47;4392751;32;33660;-88
2021/12/02 02:20:45;;;;;;;5.57;2.58;;;;;;;8.34;66.48;97667.00;4381005;32;33775;-89
2021/12/02 02:23:13;;;;;;;4.72;2.20;;;;;;;8.41;66.18;97679.94;4393707;32;34260;-88
2021/12/02 02:25:45;;;;;;;4.35;2.12;;;;;;;8.17;67.05;97673.03;4380955;32;34610;-88
2021/12/02 02:28:14;;;;;;;6.20;2.40;;;;;;;8.21;66.88;97664.44;4380817;32;34701;-89
2021/12/02 02:30:42;;;;;;;5.28;2.22;;;;;;;8.31;66.39;97664.44;4382460;32;34593;-87
2021/12/02 02:33:11;;;;;;;6.47;2.50;;;;;;;8.12;67.12;97656.72;4394326;32;33663;-89
2021/12/02 02:35:40;;;;;;;5.80;2.30;;;;;;;8.30;66.47;97648.06;4383865;32;33796;-90
2021/12/02 02:38:08;;;;;;;6.65;2.50;;;;;;;8.43;65.93;97649.78;4380671;32;34218;-88
2021/12/02 02:40:39;;;;;;;4.78;2.42;;;;;;;8.38;66.08;97648.94;4393892;32;34979;-87
2021/12/02 02:43:08;;;;;;;5.43;2.60;;;;;;;8.49;65.68;97654.09;4402714;32;34037;-89
2021/12/02 02:45:37;;;;;;;4.70;2.20;;;;;;;8.52;65.63;97656.62;4400295;32;33887;-89
2021/12/02 02:48:05;;;;;;;5.12;2.65;;;;;;;8.64;65.28;97651.44;4393711;32;34993;-89
2021/12/02 02:50:33;;;;;;;4.70;2.37;;;;;;;8.62;65.23;97663.50;4394103;32;33741;-90
2021/12/02 02:53:10;;;;;;;6.68;2.50;;;;;;;8.56;65.27;97658.38;4401217;32;33547;-90
2021/12/02 02:55:38;;;;;;;4.80;2.42;;;;;;;8.35;66.02;97664.41;4384812;32;34195;-89
2021/12/02 02:58:15;;;;;;;7.20;3.08;;;;;;;8.34;66.02;97661.84;4394748;32;34968;-90
2021/12/02 03:06:22;;;;;;;6.12;2.60;;;;;;;8.60;65.21;97652.31;4390704;32;34712;-88
2021/12/02 03:08:55;;;;;;;5.80;2.78;;;;;;;8.48;65.43;97650.59;4380683;32;34915;-89
2021/12/02 03:11:23;;;;;;;6.30;2.25;;;;;;;8.61;64.82;97656.62;4367427;32;33934;-89
2021/12/02 03:13:52;;;;;;;5.20;2.67;;;;;;;8.40;65.81;97656.69;4401216;32;34406;-88
2021/12/02 03:19:07;;;;;;;6.78;2.78;;;;;;;8.54;64.74;97652.34;4382423;32;35448;-89
2021/12/02 03:21:34;;;;;;;6.93;2.97;;;;;;;8.52;64.81;97656.62;4390970;32;34103;-89
2021/12/02 03:24:01;;;;;;;4.95;2.62;;;;;;;8.40;65.41;97669.59;4390672;32;33321;-91
2021/12/02 03:26:30;;;;;;;5.82;3.33;;;;;;;8.43;65.34;97667.00;4399049;32;33921;-89
2021/12/02 03:28:57;;;;;;;5.60;2.78;;;;;;;8.56;64.75;97658.38;4392556;32;34159;-89
2021/12/02 03:31:25;;;;;;;7.57;3.15;;;;;;;8.24;65.89;97667.00;4383545;32;34450;-89
2021/12/02 03:33:53;;;;;;;7.57;3.53;;;;;;;8.46;64.73;97673.03;4391379;32;33730;-89
2021/12/02 03:36:20;;;;;;;6.45;2.78;;;;;;;8.26;64.98;97669.59;4392813;32;33659;-89
2021/12/02 03:38:48;;;;;;;7.10;3.22;;;;;;;8.37;65.08;97656.62;4395418;32;34193;-89
2021/12/02 03:41:16;;;;;;;7.15;3.40;;;;;;;8.41;65.14;97659.28;4390647;32;33541;-90
2021/12/02 03:43:46;;;;;;;12.35;4.25;;;;;;;8.27;65.93;97656.69;4379645;32;34381;-89
2021/12/02 03:46:17;;;;;;;5.90;3.15;;;;;;;8.27;66.08;97654.09;4379558;32;33731;-89
2021/12/02 03:48:46;;;;;;;6.60;3.33;;;;;;;8.49;65.27;97646.34;4378724;32;34065;-88
2021/12/02 03:51:13;;;;;;;9.68;2.90;;;;;;;8.66;64.73;97646.25;4390091;32;33776;-91
2021/12/02 03:53:41;;;;;;;5.40;2.83;;;;;;;8.52;65.15;97649.78;4376924;32;33449;-88
2021/12/02 03:56:08;;;;;;;6.65;2.72;;;;;;;8.62;64.92;97649.72;4391036;32;34496;-89
2021/12/02 03:58:38;;;;;;;5.75;2.92;;;;;;;8.61;64.87;97656.62;4390840;32;34203;-90
2021/12/02 04:01:07;;;;;;;5.82;2.60;;;;;;;8.64;64.72;97646.28;4394400;32;34022;-89
2021/12/02 04:03:35;;;;;;;5.68;2.80;;;;;;;8.59;64.94;97652.31;4383470;32;34289;-90
2021/12/02 04:06:03;;;;;;;6.07;2.83;;;;;;;8.70;64.54;97648.81;4389803;32;33568;-90
2021/12/02 04:08:44;;;;;;;7.12;3.22;;;;;;;8.69;64.68;97649.69;4381819;32;34069;-90
2021/12/02 04:16:37;;;;;;;6.00;2.72;;;;;;;8.55;65.27;97666.94;4388412;32;33797;-89
2021/12/02 04:19:07;;;;;;;6.07;2.45;;;;;;;8.66;64.94;97660.03;4391158;32;34057;-90
2021/12/02 04:21:39;;;;;;;5.47;2.40;;;;;;;8.63;65.04;97665.19;4369082;32;34806;-90
2021/12/02 04:24:06;;;;;;;7.80;3.03;;;;;;;8.78;64.62;97665.12;4391644;32;33649;-91
2021/12/02 04:26:34;;;;;;;6.62;2.70;;;;;;;8.85;64.47;97670.28;4390867;32;34659;-90
2021/12/02 04:29:02;;;;;;;7.20;2.65;;;;;;;8.82;64.56;97675.47;4390441;32;33378;-91
2021/12/02 04:31:29;;;;;;;6.30;2.45;;;;;;;8.76;64.73;97681.53;4398056;32;34137;-90
2021/12/02 04:33:57;;;;;;;5.65;2.62;;;;;;;8.75;64.75;97672.03;4390312;32;33397;-89
2021/12/02 04:36:25;;;;;;;5.93;2.75;;;;;;;8.60;65.21;97670.41;4392361;32;34824;-91
2021/12/02 04:38:52;;;;;;;4.85;2.45;;;;;;;8.72;64.90;97672.94;4399643;32;34038;-89
2021/12/02 04:41:19;;;;;;;4.65;2.50;;;;;;;8.74;64.80;97668.59;4403334;32;33864;-90
2021/12/02 04:43:47;;;;;;;5.60;2.53;;;;;;;8.76;64.87;97666.03;4379303;32;33280;-89
2021/12/02 04:46:15;;;;;;;5.57;2.80;;;;;;;8.76;64.78;97660.87;4389306;32;34498;-90
2021/12/02 04:48:42;;;;;;;6.30;2.70;;;;;;;8.78;64.82;97659.97;4385165;32;34107;-89
2021/12/02 04:51:10;;;;;;;8.27;2.72;;;;;;;8.68;65.17;97658.31;4366118;32;33780;-89
2021/12/02 04:53:37;;;;;;;5.03;2.62;;;;;;;8.66;65.45;97660.03;4381280;32;32679;-90
2021/12/02 04:56:05;;;;;;;6.00;3.15;;;;;;;8.70;65.37;97659.16;4375892;32;33482;-89
2021/12/02 04:58:32;;;;;;;7.85;3.12;;;;;;;8.57;65.75;97665.25;4376712;32;34298;-90
2021/12/02 05:01:00;;;;;;;6.68;3.42;;;;;;;8.43;66.22;97661.84;4375994;32;33722;-90
2021/12/02 05:03:27;;;;;;;9.50;4.20;;;;;;;8.32;66.80;97669.56;4391126;32;33226;-89
2021/12/02 05:05:55;;;;;;;8.20;3.42;;;;;;;8.50;66.12;97663.53;4385144;32;33912;-91
2021/12/02 05:08:22;;;;;;;7.35;3.20;;;;;;;8.45;66.21;97665.28;4377687;32;34122;-90
2021/12/02 05:11:08;;;;;;;5.87;2.80;;;;;;;8.42;66.48;97667.88;4390500;32;34117;-90
2021/12/02 05:13:36;;;;;;;5.35;3.08;;;;;;;8.33;66.88;97678.19;4388133;32;34588;-87
2021/12/02 05:16:04;;;;;;;6.35;3.00;;;;;;;8.54;66.04;97685.91;4391402;32;33727;-88
2021/12/02 05:18:31;;;;;;;5.85;3.20;;;;;;;8.41;66.62;97689.38;4400172;32;33697;-88
2021/12/02 05:21:00;;;;;;;8.27;3.85;;;;;;;8.53;66.25;97689.38;4389236;32;33858;-87
2021/12/02 05:23:27;;;;;;;9.52;3.50;;;;;;;8.50;66.16;97677.31;4380495;32;33484;-86
2021/12/02 05:25:54;;;;;;;8.43;3.80;;;;;;;8.43;66.55;97680.75;4384113;32;34030;-87
2021/12/02 05:28:22;;;;;;;8.20;4.28;;;;;;;8.36;66.84;97665.25;4390876;32;35041;-87
2021/12/02 05:30:50;;;;;;;8.07;4.07;;;;;;;8.44;66.64;97666.13;4388447;32;33268;-86
2021/12/02 05:33:17;;;;;;;7.97;4.03;;;;;;;8.47;66.51;97669.56;4386764;32;33550;-86
2021/12/02 05:35:46;;;;;;;8.32;3.90;;;;;;;8.53;66.25;97655.78;4377684;32;32261;-90
2021/12/02 05:38:14;;;;;;;8.50;4.15;;;;;;;8.62;66.00;97655.75;4390092;32;35317;-89
2021/12/02 05:40:41;;;;;;;8.65;4.30;;;;;;;8.63;66.06;97662.63;4378543;32;34553;-89
2021/12/02 05:43:09;;;;;;;8.60;4.40;;;;;;;8.64;66.09;97666.94;4365977;32;33467;-89
2021/12/02 05:45:36;;;;;;;7.43;3.72;;;;;;;8.59;66.21;97654.88;4376892;32;34822;-91
2021/12/02 05:48:04;;;;;;;7.10;3.75;;;;;;;8.65;66.15;97653.16;4375657;32;33957;-89
2021/12/02 05:50:32;;;;;;;7.47;3.72;;;;;;;8.84;65.63;97659.09;4376732;32;34781;-88
2021/12/02 05:52:59;;;;;;;7.57;3.78;;;;;;;8.50;66.72;97664.41;4394117;32;34118;-87
2021/12/02 05:55:27;;;;;;;6.47;3.50;;;;;;;8.59;66.57;97653.16;4385580;32;33914;-87
2021/12/02 05:57:57;;;;;;;7.18;3.40;;;;;;;8.56;66.79;97658.38;4363553;32;33782;-89
2021/12/02 06:00:24;;;;;;;6.85;3.65;;;;;;;8.48;67.07;97660.09;4375989;32;33779;-88
2021/12/02 06:02:52;;;;;;;8.60;3.47;;;;;;;8.57;66.88;97660.06;4388791;32;34374;-87
2021/12/02 06:05:20;;;;;;;7.65;4.25;;;;;;;8.65;66.63;97652.28;4389829;32;33630;-89
2021/12/02 06:07:53;;;;;;;7.18;3.75;;;;;;;8.57;66.85;97660.06;4376320;32;34403;-89
2021/12/02 06:10:20;;;;;;;7.68;3.65;;;;;;;8.64;66.80;97659.19;4376850;32;33761;-89
2021/12/02 06:12:48;;;;;;;6.10;3.12;;;;;;;8.70;66.27;97659.16;4376253;32;34273;-88
2021/12/02 06:15:16;;;;;;;7.78;3.22;;;;;;;8.75;66.24;97653.97;4364215;32;33773;-88
2021/12/02 06:17:44;;;;;;;9.48;3.62;;;;;;;8.48;67.08;97660.09;4376319;32;35772;-89
2021/12/02 06:20:13;;;;;;;7.03;3.95;;;;;;;8.67;66.61;97658.28;4376879;32;34249;-89
2021/12/02 06:22:41;;;;;;;6.10;3.80;;;;;;;8.64;66.93;97656.59;4376830;32;33480;-90
2021/12/02 06:27:53;;;;;;;6.93;3.90;;;;;;;8.53;67.38;97659.22;4375882;32;33364;-91
2021/12/02 06:30:23;;;;;;;7.93;4.43;;;;;;;8.14;68.73;97673.03;4376062;32;33540;-88
2021/12/02 06:32:50;;;;;;;7.20;3.42;;;;;;;8.57;67.23;97665.25;4389559;32;34374;-89
2021/12/02 06:35:18;;;;;;;7.03;3.67;;;;;;;8.75;66.86;97669.47;4389422;32;34898;-90
2021/12/02 06:37:46;;;;;;;6.95;4.40;;;;;;;8.60;67.44;97660.06;4389451;32;35663;-90
2021/12/02 06:40:15;;;;;;;10.05;5.12;;;;;;;8.40;68.43;97656.69;4380207;32;34469;-90
2021/12/02 06:42:45;;;;;;;12.60;6.03;;;;;;;8.20;69.35;97660.13;4392577;32;34430;-89
2021/12/02 06:45:13;;;;;;;9.80;5.40;;;;;;;8.18;69.67;97659.28;4392059;32;33853;-90
2021/12/02 06:47:48;;;;;;;9.82;5.97;;;;;;;8.36;69.11;97649.78;4391936;32;34294;-90
2021/12/02 06:50:18;;;;;;;9.52;5.65;;;;;;;8.30;69.48;97658.41;4391801;32;33907;-90
2021/12/02 06:52:48;;;;;;;9.60;5.20;;;;;;;8.42;68.84;97670.47;4391905;32;33238;-90
2021/12/02 06:55:16;;;;;;;10.48;5.60;;;;;;;8.49;68.23;97678.19;4391703;32;33932;-89
2021/12/02 06:57:44;;;;;;;8.48;4.90;;;;;;;8.37;68.51;97677.31;4378520;32;34851;-88
2021/12/02 07:00:15;;;;;;;9.55;5.50;;;;;;;8.62;67.75;97681.56;4378358;32;33763;-92
2021/12/02 07:02:43;;;;;;;9.63;5.47;;;;;;;8.49;68.16;97677.31;4378076;32;34874;-88
2021/12/02 07:05:14;;;;;;;12.10;6.18;;;;;;;8.48;68.29;97673.84;4391373;32;33943;-89
2021/12/02 07:07:43;;;;;;;9.60;5.93;;;;;;;8.48;68.25;97685.91;4403004;32;34134;-89
2021/12/02 07:10:20;;;;;;;11.73;6.53;;;;;;;8.70;67.56;97692.75;4377927;32;34656;-90
2021/12/02 07:12:51;;;;;;;11.55;6.00;;;;;;;8.47;68.15;97708.31;4377711;32;33547;-90
2021/12/02 07:16:02;;;;;;;10.82;6.55;;;;;;;8.48;68.42;97704.84;4391106;32;33842;-88
2021/12/02 07:18:13;;;;;;;8.57;5.20;;;;;;;8.46;68.66;97704.00;4385190;32;33935;-89
2021/12/02 07:20:43;;;;;;;10.65;6.22;;;;;;;8.36;69.03;97709.16;4390797;32;36292;-88
2021/12/02 07:23:10;;;;;;;10.23;5.03;;;;;;;8.50;68.50;97705.72;4391362;32;34349;-88
2021/12/02 07:25:40;;;;;;;10.88;5.68;;;;;;;8.56;68.22;97703.97;4365301;32;33133;-90
2021/12/02 07:28:10;;;;;;;10.23;5.15;;;;;;;8.57;68.31;97701.41;4377595;32;35003;-89
2021/12/02 07:30:38;;;;;;;11.20;5.68;;;;;;;8.77;67.83;97689.28;4377629;32;35068;-89
2021/12/02 07:33:08;;;;;;;8.50;5.15;;;;;;;8.65;68.35;97701.38;4377893;32;33076;-89
2021/12/02 07:35:36;;;;;;;8.50;4.85;;;;;;;8.74;68.42;97701.34;4377658;32;34469;-88
2021/12/02 07:38:04;;;;;;;9.73;5.60;;;;;;;8.74;68.48;97709.94;4391568;32;34241;-88
2021/12/02 07:40:36;;;;;;;9.10;5.85;;;;;;;8.74;68.50;97712.53;4377770;32;35045;-90
2021/12/02 07:43:04;;;;;;;10.43;5.43;;;;;;;8.89;68.25;97709.03;4391408;32;33278;-91
2021/12/02 07:45:35;;;;;;;13.20;7.28;;;;;;;8.79;68.59;97717.69;4391083;32;33687;-90
2021/12/02 07:48:07;;;;;;;13.62;7.45;;;;;;;8.83;68.60;97718.56;4378071;32;34098;-93
2021/12/02 07:50:36;;;;;;;10.27;6.82;;;;;;;8.84;68.70;97715.09;4377835;32;33890;-90
2021/12/02 08:21:27;;;;;;;14.32;8.68;;;;;;;9.28;68.67;97725.25;4898715;27;20216;-88
2021/12/02 08:23:55;;;;;;;16.42;8.63;;;;;;;9.25;68.77;97718.34;4375672;32;33399;-87
2021/12/02 08:26:22;;;;;;;17.08;9.13;;;;;;;9.33;68.54;97725.22;4362374;32;34041;-87
2021/12/02 08:28:50;;;;;;;20.15;9.45;;;;;;;9.32;68.73;97731.22;4375683;32;33352;-88
2021/12/02 08:31:18;;;;;;;17.87;9.15;;;;;;;9.41;68.47;97728.63;4362096;32;33735;-87
2021/12/02 08:33:48;;;;;;;13.40;8.13;;;;;;;9.33;68.86;97739.00;4375760;32;33929;-87
2021/12/02 08:36:16;;;;;;;17.23;8.95;;;;;;;9.41;68.66;97741.56;4375539;32;35054;-87
2021/12/02 08:38:46;;;;;;;16.12;9.85;;;;;;;9.49;68.36;97738.03;4375668;32;33557;-87
2021/12/02 08:41:17;;;;;;;16.95;9.43;;;;;;;9.38;68.79;97739.84;4362154;32;33992;-87
2021/12/02 08:43:47;;;;;;;16.12;9.88;;;;;;;9.34;69.25;97737.28;4375494;32;34069;-87
2021/12/02 08:46:17;;;;;;;18.80;8.50;;;;;;;9.49;68.74;97742.38;4362295;32;33542;-87
2021/12/02 08:48:46;;;;;;;19.10;9.48;;;;;;;9.70;68.22;97742.25;4362236;32;34008;-87
2021/12/02 08:51:13;;;;;;;16.58;9.45;;;;;;;9.41;68.97;97745.00;4375447;32;33926;-87
2021/12/02 08:53:41;;;;;;;14.50;9.45;;;;;;;9.40;69.13;97745.00;4375575;32;33990;-88
2021/12/02 08:56:08;;;;;;;16.23;8.27;;;;;;;9.45;69.04;97741.50;4375362;32;33101;-89
2021/12/02 08:58:38;;;;;;;14.57;8.93;;;;;;;9.43;69.31;97745.84;4375285;32;33911;-88
2021/12/02 09:01:05;;;;;;;16.67;10.23;;;;;;;9.55;69.22;97747.50;4375384;32;33582;-87
2021/12/02 09:03:38;;;;;;;19.62;11.70;;;;;;;9.52;69.46;97744.09;4361568;32;33903;-87
2021/12/02 09:06:11;;;;;;;22.10;13.15;;;;;;;9.54;69.42;97735.41;4375290;32;33863;-87
2021/12/02 09:08:40;;;;;;;20.48;11.02;;;;;;;9.78;68.59;97733.56;4375692;32;33178;-88
2021/12/02 09:11:07;;;;;;;19.42;11.18;;;;;;;9.69;69.05;97730.16;4373847;32;33568;-87
2021/12/02 09:13:34;;;;;;;17.92;11.98;;;;;;;9.71;69.30;97733.59;4362153;32;33825;-88
2021/12/02 09:16:02;;;;;;;31.40;16.95;;;;;;;9.67;69.70;97737.06;4361845;32;33627;-87
2021/12/02 09:18:30;;;;;;;37.35;22.33;;;;;;;9.49;70.32;97730.28;4375289;32;33001;-87
2021/12/02 09:20:58;;;;;;;22.52;13.70;;;;;;;9.56;70.17;97731.09;4361778;32;33157;-87
2021/12/02 09:23:26;;;;;;;20.37;11.93;;;;;;;9.58;69.90;97728.50;4361909;32;34998;-87
2021/12/02 09:25:53;;;;;;;25.23;14.07;;;;;;;9.59;69.74;97725.91;4361479;32;32586;-88
2021/12/02 09:28:21;;;;;;;24.20;14.25;;;;;;;9.54;69.85;97719.91;4361980;32;33711;-88
2021/12/02 09:30:49;;;;;;;32.63;16.23;;;;;;;9.49;70.04;97711.31;4361883;32;34520;-88
2021/12/02 09:33:16;;;;;;;27.58;15.95;;;;;;;9.67;69.83;97706.03;4361636;32;34879;-88
2021/12/02 09:35:44;;;;;;;23.33;15.02;;;;;;;9.83;68.99;97703.31;4349324;32;34575;-88
2021/12/02 09:38:11;;;;;;;16.27;11.15;;;;;;;9.13;71.42;97702.91;4375125;32;33521;-88
2021/12/02 09:40:41;;;;;;;19.08;11.32;;;;;;;9.13;71.35;97704.59;4374887;32;33463;-87
2021/12/02 09:43:11;;;;;;;14.32;10.35;;;;;;;9.46;70.56;97695.81;4349353;32;32797;-88
2021/12/02 09:45:39;;;;;;;14.73;9.93;;;;;;;9.24;71.49;97701.13;4361803;32;33624;-88
2021/12/02 09:48:08;;;;;;;16.02;10.43;;;;;;;9.15;71.81;97700.31;4349069;32;33594;-88
2021/12/02 09:50:52;;;;;;;16.55;11.70;;;;;;;8.84;73.07;97697.00;4349140;32;32800;-88
2021/12/02 09:53:24;;;;;;;17.45;12.15;;;;;;;8.90;73.09;97695.28;4350568;32;33369;-88
2021/12/02 09:58:26;;;;;;;18.27;11.05;;;;;;;8.71;74.29;97691.00;4375403;32;34171;-88
2021/12/02 10:01:36;;;;;;;16.05;11.05;;;;;;;8.72;74.35;97685.84;4374977;32;33860;-88
2021/12/02 10:03:51;;;;;;;16.35;10.63;;;;;;;8.86;73.90;97688.38;4372100;32;33931;-88
2021/12/02 10:06:25;;;;;;;15.57;10.50;;;;;;;8.87;73.82;97678.91;4374928;32;34324;-88
2021/12/02 10:09:08;;;;;;;15.43;10.63;;;;;;;9.09;72.96;97683.13;4374949;32;34324;-88
2021/12/02 10:11:45;;;;;;;15.27;10.30;;;;;;;8.76;74.42;97674.63;4374676;32;34631;-91
2021/12/02 10:14:22;;;;;;;16.10;9.45;;;;;;;8.90;74.09;97672.00;4362162;32;33988;-87
2021/12/02 10:22:45;;;;;;;62.80;39.28;;;;;;;9.14;73.75;97665.00;4362434;32;32934;-87
2021/12/02 10:25:28;;;;;;;34.72;23.87;;;;;;;9.14;73.77;97663.25;4376503;32;34206;-88
2021/12/02 10:28:09;;;;;;;20.90;12.27;;;;;;;9.02;74.14;97665.91;4362596;32;33609;-88
2021/12/02 10:30:55;;;;;;;15.05;10.63;;;;;;;9.47;72.12;97658.72;4350937;32;34282;-88
2021/12/02 10:33:47;;;;;;;13.88;10.48;;;;;;;8.94;74.39;97659.91;4362723;32;34257;-88
2021/12/02 10:36:33;;;;;;;14.20;11.35;;;;;;;8.89;75.02;97652.19;4350799;32;34072;-88
2021/12/02 10:39:13;;;;;;;14.32;9.90;;;;;;;9.11;74.24;97641.72;4376181;32;34823;-88
2021/12/02 10:41:43;;;;;;;11.90;8.25;;;;;;;9.14;74.18;97652.06;4350278;32;31935;-88
2021/12/02 10:44:15;;;;;;;13.05;8.25;;;;;;;9.11;74.42;97654.66;4362622;32;34124;-88
2021/12/02 10:47:00;;;;;;;11.30;6.82;;;;;;;9.28;73.93;97652.84;4362843;32;35012;-88
2021/12/02 10:49:39;;;;;;;11.05;6.55;;;;;;;9.31;73.38;97641.59;4362660;32;33357;-88
2021/12/02 10:52:10;;;;;;;9.63;6.62;;;;;;;9.13;74.20;97639.97;4376116;32;33484;-88
2021/12/02 10:54:41;;;;;;;10.45;6.60;;;;;;;9.10;74.28;97638.28;4362932;32;34361;-88
2021/12/02 10:57:15;;;;;;;11.43;7.45;;;;;;;9.15;74.26;97633.09;4362922;32;34035;-88
2021/12/02 10:59:48;;;;;;;10.30;7.05;;;;;;;9.05;74.79;97624.50;4362601;32;33904;-88
2021/12/02 11:02:31;;;;;;;10.00;6.97;;;;;;;9.10;74.50;97625.38;4362799;32;34345;-88
2021/12/02 11:05:04;;;;;;;8.85;6.07;;;;;;;9.36;73.67;97624.34;4362780;32;33850;-88
2021/12/02 11:07:39;;;;;;;10.77;6.93;;;;;;;9.47;72.83;97622.50;4362610;32;33813;-88
2021/12/02 11:10:12;;;;;;;10.52;7.03;;;;;;;9.37;73.21;97613.13;4362754;32;33381;-88
2021/12/02 11:12:44;;;;;;;11.23;6.70;;;;;;;9.30;73.50;97609.72;4362626;32;33735;-88
2021/12/02 11:15:22;;;;;;;10.02;5.75;;;;;;;9.39;73.04;97608.78;4376036;32;34627;-88
2021/12/02 11:17:53;;;;;;;7.93;4.03;;;;;;;9.24;73.30;97618.38;4350203;32;33304;-88
2021/12/02 11:20:23;;;;;;;7.43;4.45;;;;;;;9.31;72.81;97610.56;4362573;32;33441;-88
2021/12/02 11:23:08;;;;;;;8.43;4.18;;;;;;;9.26;72.42;97610.59;4375760;32;33402;-88
2021/12/02 11:26:16;;;;;;;10.05;4.25;;;;;;;9.18;72.61;97602.91;4375702;32;34498;-88
2021/12/02 11:28:45;;;;;;;9.40;4.68;;;;;;;9.10;72.84;97603.81;4375943;32;34161;-88
2021/12/02 11:31:18;;;;;;;11.02;5.28;;;;;;;9.29;72.27;97599.38;4362093;32;33100;-88
2021/12/02 11:33:48;;;;;;;11.27;4.75;;;;;;;9.14;72.72;97596.03;4362537;32;33792;-88
2021/12/02 11:36:22;;;;;;;9.38;4.15;;;;;;;9.11;73.05;97597.78;4376084;32;33584;-87
2021/12/02 11:38:52;;;;;;;6.15;3.70;;;;;;;9.16;73.04;97604.62;4376023;32;34575;-88
2021/12/02 11:41:20;;;;;;;6.45;3.58;;;;;;;9.09;73.11;97597.81;4362402;32;33918;-88
2021/12/02 11:43:47;;;;;;;6.03;3.55;;;;;;;9.27;72.45;97587.31;4375896;32;34207;-88
2021/12/02 11:46:15;;;;;;;6.75;3.67;;;;;;;9.25;72.62;97596.81;4376066;32;34624;-88
2021/12/02 11:48:43;;;;;;;6.10;3.70;;;;;;;8.99;73.50;97584.06;4362544;32;34209;-88
2021/12/02 11:51:13;;;;;;;8.40;3.50;;;;;;;8.98;73.36;97594.44;4362460;32;33799;-88
2021/12/02 11:53:41;;;;;;;10.15;3.78;;;;;;;9.13;72.82;97586.56;4337921;32;33290;-88
2021/12/02 11:56:13;;;;;;;7.95;3.70;;;;;;;8.85;73.71;97580.69;4376071;32;33891;-88
2021/12/02 11:58:41;;;;;;;9.73;3.47;;;;;;;8.99;73.20;97586.66;4362309;32;33925;-88
2021/12/02 12:01:26;;;;;;;8.00;3.15;;;;;;;9.15;72.27;97587.41;4350101;32;34109;-88
2021/12/02 12:04:01;;;;;;;7.72;3.17;;;;;;;9.46;71.30;97582.00;4362484;32;34047;-88
2021/12/02 12:06:31;;;;;;;6.50;3.12;;;;;;;9.14;72.17;97587.44;4349746;32;34297;-88
2021/12/02 12:09:00;;;;;;;10.82;3.80;;;;;;;8.81;73.53;97585.91;4362391;32;34159;-88
2021/12/02 12:11:30;;;;;;;8.38;3.62;;;;;;;9.03;72.43;97587.50;4362173;32;33928;-88
2021/12/02 12:14:08;;;;;;;8.25;4.15;;;;;;;9.04;72.85;97578.84;4362166;32;33754;-88
2021/12/02 12:16:37;;;;;;;6.87;3.35;;;;;;;9.34;71.33;97579.50;4375621;32;34359;-87
2021/12/02 12:19:29;;;;;;;7.75;3.00;;;;;;;9.14;71.69;97577.94;4362128;32;34194;-88
2021/12/02 12:22:06;;;;;;;7.18;2.90;;;;;;;9.01;72.10;97568.53;4375594;32;33865;-88
2021/12/02 12:24:47;;;;;;;;;;;;;;;9.26;71.35;97562.31;4362640;32;33345;-87
2021/12/02 12:27:17;;;;;;;5.18;2.08;;;;;;;9.25;71.25;97560.63;4362324;32;34312;-87
2021/12/02 12:30:06;;;;;;;7.25;2.78;;;;;;;9.04;72.00;97559.91;4362525;32;34947;-88
2021/12/02 12:32:49;;;;;;;9.88;3.72;;;;;;;9.10;71.57;97558.16;4363196;32;33654;-88
2021/12/02 12:35:43;;;;;;;6.43;2.63;;;;;;;9.01;71.42;97558.19;4375466;32;33510;-88
2021/12/02 12:38:20;;;;;;;7.75;3.60;;;;;;;8.47;74.08;97553.34;4350672;32;33453;-88
2021/12/02 12:40:57;;;;;;;11.73;5.65;;;;;;;8.97;71.75;97548.75;4375634;32;34141;-87
2021/12/02 12:43:30;;;;;;;8.75;4.03;;;;;;;8.94;71.60;97553.94;4362029;32;33507;-87
2021/12/02 12:46:27;;;;;;;6.97;3.95;;;;;;;8.67;73.09;97552.38;4361739;32;33367;-88
2021/12/02 12:48:57;;;;;;;11.35;4.45;;;;;;;9.08;71.46;97554.69;4355648;32;33794;-88
2021/12/02 12:51:35;;;;;;;6.93;3.33;;;;;;;8.85;72.17;97554.84;4361976;32;33659;-87
2021/12/02 12:54:06;;;;;;;8.73;4.32;;;;;;;8.99;71.15;97560.81;4361753;32;32687;-88